sensor_id;sensor_type;location;lat;lon;timestamp;temperature;humidity
10354;DHT22;5223;50.924;13.338;2022-08-03T00:02:21;18.20;99.90
10354;DHT22;5223;50.924;13.338;2022-08-03T00:04:49;18.10;99.90
10354;DHT22;5223;50.924;13.338;2022-08-03T00:07:17;18.10;99.90
10354;DHT22;5223;50.924;13.338;2022-08-03T00:09:45;18.20;99.90
10354;DHT22;5223;50.924;13.338;2022-08-03T00:12:15;18.10;99.90
10354;DHT22;5223;50.924;13.338;2022-08-03T00:14:43;18.00;99.90
10354;DHT22;5223;50.924;13.338;2022-08-03T00:17:10;18.10;99.90
10354;DHT22;5223;50.924;13.338;2022-08-03T00:19:44;18.00;99.90
10354;DHT22;5223;50.924;13.338;2022-08-03T00:22:12;18.00;99.90
10354;DHT22;5223;50.924;13.338;2022-08-03T00:24:42;18.00;99.90
10354;DHT22;5223;50.924;13.338;2022-08-03T00:27:09;18.00;99.90
10354;DHT22;5223;50.924;13.338;2022-08-03T00:29:37;17.90;99.90
10354;DHT22;5223;50.924;13.338;2022-08-03T00:32:05;17.80;99.90
10354;DHT22;5223;50.924;13.338;2022-08-03T00:34:32;17.80;99.90
10354;DHT22;5223;50.924;13.338;2022-08-03T00:37:03;17.80;99.90
10354;DHT22;5223;50.924;13.338;2022-08-03T00:39:32;17.70;99.90
10354;DHT22;5223;50.924;13.338;2022-08-03T00:42:06;17.70;99.90
10354;DHT22;5223;50.924;13.338;2022-08-03T00:44:38;17.60;99.90
10354;DHT22;5223;50.924;13.338;2022-08-03T00:47:07;17.60;99.90
10354;DHT22;5223;50.924;13.338;2022-08-03T00:49:34;17.70;99.90
10354;DHT22;5223;50.924;13.338;2022-08-03T00:52:07;17.60;99.90
10354;DHT22;5223;50.924;13.338;2022-08-03T00:54:35;17.70;99.90
10354;DHT22;5223;50.924;13.338;2022-08-03T00:57:05;17.60;99.90
10354;DHT22;5223;50.924;13.338;2022-08-03T00:59:32;17.60;99.90
10354;DHT22;5223;50.924;13.338;2022-08-03T01:02:02;17.70;99.90
10354;DHT22;5223;50.924;13.338;2022-08-03T01:04:33;17.60;99.90
10354;DHT22;5223;50.924;13.338;2022-08-03T01:07:17;17.50;99.90
10354;DHT22;5223;50.924;13.338;2022-08-03T01:09:59;17.50;99.90
10354;DHT22;5223;50.924;13.338;2022-08-03T01:12:34;17.50;99.90
10354;DHT22;5223;50.924;13.338;2022-08-03T01:15:08;17.40;99.90
10354;DHT22;5223;50.924;13.338;2022-08-03T01:17:39;17.40;99.90
10354;DHT22;5223;50.924;13.338;2022-08-03T01:20:13;17.40;99.90
10354;DHT22;5223;50.924;13.338;2022-08-03T01:26:18;17.40;99.90
10354;DHT22;5223;50.924;13.338;2022-08-03T01:28:59;17.40;99.90
10354;DHT22;5223;50.924;13.338;2022-08-03T01:31:34;17.30;99.90
10354;DHT22;5223;50.924;13.338;2022-08-03T01:34:06;17.40;99.90
10354;DHT22;5223;50.924;13.338;2022-08-03T01:36:38;17.30;99.90
10354;DHT22;5223;50.924;13.338;2022-08-03T01:39:08;17.20;99.90
10354;DHT22;5223;50.924;13.338;2022-08-03T01:41:43;17.20;99.90
10354;DHT22;5223;50.924;13.338;2022-08-03T01:44:12;17.20;99.90
10354;DHT22;5223;50.924;13.338;2022-08-03T01:46:45;17.20;99.90
10354;DHT22;5223;50.924;13.338;2022-08-03T01:49:16;17.20;99.90
10354;DHT22;5223;50.924;13.338;2022-08-03T01:51:46;17.20;99.90
10354;DHT22;5223;50.924;13.338;2022-08-03T01:54:16;17.20;99.90
10354;DHT22;5223;50.924;13.338;2022-08-03T01:56:44;17.20;99.90
10354;DHT22;5223;50.924;13.338;2022-08-03T01:59:15;17.10;99.90
10354;DHT22;5223;50.924;13.338;2022-08-03T02:01:47;17.10;99.90
10354;DHT22;5223;50.924;13.338;2022-08-03T02:04:17;17.10;99.90
10354;DHT22;5223;50.924;13.338;2022-08-03T02:06:45;17.00;99.90
10354;DHT22;5223;50.924;13.338;2022-08-03T02:09:19;17.10;99.90
10354;DHT22;5223;50.924;13.338;2022-08-03T02:11:50;17.10;99.90
10354;DHT22;5223;50.924;13.338;2022-08-03T02:14:20;17.10;99.90
10354;DHT22;5223;50.924;13.338;2022-08-03T02:16:50;17.10;99.90
10354;DHT22;5223;50.924;13.338;2022-08-03T02:19:18;17.10;99.90
10354;DHT22;5223;50.924;13.338;2022-08-03T02:21:48;17.10;99.90
10354;DHT22;5223;50.924;13.338;2022-08-03T02:24:20;17.00;99.90
10354;DHT22;5223;50.924;13.338;2022-08-03T02:26:48;17.10;99.90
10354;DHT22;5223;50.924;13.338;2022-08-03T02:29:20;17.10;99.90
10354;DHT22;5223;50.924;13.338;2022-08-03T02:31:57;17.10;99.90
10354;DHT22;5223;50.924;13.338;2022-08-03T02:34:29;17.00;99.90
10354;DHT22;5223;50.924;13.338;2022-08-03T02:36:59;17.00;99.90
10354;DHT22;5223;50.924;13.338;2022-08-03T02:39:30;16.90;99.90
10354;DHT22;5223;50.924;13.338;2022-08-03T02:42:00;16.90;99.90
10354;DHT22;5223;50.924;13.338;2022-08-03T02:44:31;16.90;99.90
10354;DHT22;5223;50.924;13.338;2022-08-03T02:47:06;16.80;99.90
10354;DHT22;5223;50.924;13.338;2022-08-03T02:49:36;16.80;99.90
10354;DHT22;5223;50.924;13.338;2022-08-03T02:52:08;16.80;99.90
10354;DHT22;5223;50.924;13.338;2022-08-03T02:54:38;16.90;99.90
10354;DHT22;5223;50.924;13.338;2022-08-03T02:57:09;16.80;99.90
10354;DHT22;5223;50.924;13.338;2022-08-03T02:59:38;16.80;99.90
10354;DHT22;5223;50.924;13.338;2022-08-03T03:02:12;16.70;99.90
10354;DHT22;5223;50.924;13.338;2022-08-03T03:04:43;16.70;99.90
10354;DHT22;5223;50.924;13.338;2022-08-03T03:07:12;16.60;99.90
10354;DHT22;5223;50.924;13.338;2022-08-03T03:09:40;16.70;99.90
10354;DHT22;5223;50.924;13.338;2022-08-03T03:12:13;16.70;99.90
10354;DHT22;5223;50.924;13.338;2022-08-03T03:14:42;16.70;99.90
10354;DHT22;5223;50.924;13.338;2022-08-03T03:17:18;16.70;99.90
10354;DHT22;5223;50.924;13.338;2022-08-03T03:19:51;16.60;99.90
10354;DHT22;5223;50.924;13.338;2022-08-03T03:22:20;16.60;99.90
10354;DHT22;5223;50.924;13.338;2022-08-03T03:24:52;16.70;99.90
10354;DHT22;5223;50.924;13.338;2022-08-03T03:27:22;16.60;99.90
10354;DHT22;5223;50.924;13.338;2022-08-03T03:29:49;16.60;99.90
10354;DHT22;5223;50.924;13.338;2022-08-03T03:32:22;16.60;99.90
10354;DHT22;5223;50.924;13.338;2022-08-03T03:34:51;16.60;99.90
10354;DHT22;5223;50.924;13.338;2022-08-03T03:37:19;16.50;99.90
10354;DHT22;5223;50.924;13.338;2022-08-03T03:39:50;16.50;99.90
10354;DHT22;5223;50.924;13.338;2022-08-03T03:42:28;16.50;99.90
10354;DHT22;5223;50.924;13.338;2022-08-03T03:45:02;16.50;99.90
10354;DHT22;5223;50.924;13.338;2022-08-03T03:47:39;16.50;99.90
10354;DHT22;5223;50.924;13.338;2022-08-03T03:50:10;16.50;99.90
10354;DHT22;5223;50.924;13.338;2022-08-03T03:52:38;16.50;99.90
10354;DHT22;5223;50.924;13.338;2022-08-03T03:55:07;16.60;99.90
10354;DHT22;5223;50.924;13.338;2022-08-03T03:57:37;16.60;99.90
10354;DHT22;5223;50.924;13.338;2022-08-03T04:00:06;16.60;99.90
10354;DHT22;5223;50.924;13.338;2022-08-03T04:02:41;16.70;99.90
10354;DHT22;5223;50.924;13.338;2022-08-03T04:05:11;16.70;99.90
10354;DHT22;5223;50.924;13.338;2022-08-03T04:07:59;16.70;99.90
10354;DHT22;5223;50.924;13.338;2022-08-03T04:11:02;16.80;99.90
10354;DHT22;5223;50.924;13.338;2022-08-03T04:13:35;16.90;99.90
10354;DHT22;5223;50.924;13.338;2022-08-03T04:16:04;16.90;99.90
10354;DHT22;5223;50.924;13.338;2022-08-03T04:18:36;17.00;99.90
10354;DHT22;5223;50.924;13.338;2022-08-03T04:21:09;17.00;99.90
10354;DHT22;5223;50.924;13.338;2022-08-03T04:23:41;17.10;99.90
10354;DHT22;5223;50.924;13.338;2022-08-03T04:26:11;17.20;99.90
10354;DHT22;5223;50.924;13.338;2022-08-03T04:28:42;17.20;99.90
10354;DHT22;5223;50.924;13.338;2022-08-03T04:31:12;17.30;99.90
10354;DHT22;5223;50.924;13.338;2022-08-03T04:33:49;17.40;99.90
10354;DHT22;5223;50.924;13.338;2022-08-03T04:36:24;17.50;99.90
10354;DHT22;5223;50.924;13.338;2022-08-03T04:38:56;17.60;99.90
10354;DHT22;5223;50.924;13.338;2022-08-03T04:41:26;17.70;99.90
10354;DHT22;5223;50.924;13.338;2022-08-03T04:43:59;17.80;99.90
10354;DHT22;5223;50.924;13.338;2022-08-03T04:46:30;17.80;99.90
10354;DHT22;5223;50.924;13.338;2022-08-03T04:49:03;17.90;99.90
10354;DHT22;5223;50.924;13.338;2022-08-03T04:51:36;18.10;99.90
10354;DHT22;5223;50.924;13.338;2022-08-03T04:54:05;18.10;99.90
10354;DHT22;5223;50.924;13.338;2022-08-03T04:56:35;18.30;99.90
10354;DHT22;5223;50.924;13.338;2022-08-03T04:59:13;18.40;99.90
10354;DHT22;5223;50.924;13.338;2022-08-03T05:01:45;18.50;99.90
10354;DHT22;5223;50.924;13.338;2022-08-03T05:04:51;18.70;99.90
10354;DHT22;5223;50.924;13.338;2022-08-03T05:07:22;18.80;99.90
10354;DHT22;5223;50.924;13.338;2022-08-03T05:10:09;18.90;99.90
10354;DHT22;5223;50.924;13.338;2022-08-03T05:12:44;19.00;99.90
10354;DHT22;5223;50.924;13.338;2022-08-03T05:15:16;19.10;99.90
10354;DHT22;5223;50.924;13.338;2022-08-03T05:17:43;19.30;99.90
10354;DHT22;5223;50.924;13.338;2022-08-03T05:20:59;19.40;99.90
10354;DHT22;5223;50.924;13.338;2022-08-03T05:23:35;19.50;99.90
10354;DHT22;5223;50.924;13.338;2022-08-03T05:26:03;19.60;99.90
10354;DHT22;5223;50.924;13.338;2022-08-03T05:28:30;19.80;99.90
10354;DHT22;5223;50.924;13.338;2022-08-03T05:31:05;19.90;99.90
10354;DHT22;5223;50.924;13.338;2022-08-03T05:33:41;20.10;99.90
10354;DHT22;5223;50.924;13.338;2022-08-03T05:36:26;20.30;99.90
10354;DHT22;5223;50.924;13.338;2022-08-03T05:38:58;20.40;99.90
10354;DHT22;5223;50.924;13.338;2022-08-03T05:41:32;20.50;99.90
10354;DHT22;5223;50.924;13.338;2022-08-03T05:44:08;20.70;99.90
10354;DHT22;5223;50.924;13.338;2022-08-03T05:46:38;20.90;99.90
10354;DHT22;5223;50.924;13.338;2022-08-03T05:49:11;21.10;99.90
10354;DHT22;5223;50.924;13.338;2022-08-03T05:51:53;21.30;99.90
10354;DHT22;5223;50.924;13.338;2022-08-03T05:54:26;21.60;99.90
10354;DHT22;5223;50.924;13.338;2022-08-03T05:57:04;21.80;99.90
10354;DHT22;5223;50.924;13.338;2022-08-03T05:59:34;22.10;99.90
10354;DHT22;5223;50.924;13.338;2022-08-03T06:02:22;22.30;99.90
10354;DHT22;5223;50.924;13.338;2022-08-03T06:05:02;22.50;99.90
10354;DHT22;5223;50.924;13.338;2022-08-03T06:10:50;22.60;99.90
10354;DHT22;5223;50.924;13.338;2022-08-03T06:13:20;22.90;99.40
10354;DHT22;5223;50.924;13.338;2022-08-03T06:15:57;23.00;98.70
10354;DHT22;5223;50.924;13.338;2022-08-03T06:18:29;23.10;98.20
10354;DHT22;5223;50.924;13.338;2022-08-03T06:20:56;23.40;98.20
10354;DHT22;5223;50.924;13.338;2022-08-03T06:23:34;24.30;97.10
10354;DHT22;5223;50.924;13.338;2022-08-03T06:26:15;25.50;94.90
10354;DHT22;5223;50.924;13.338;2022-08-03T06:28:48;26.60;91.70
10354;DHT22;5223;50.924;13.338;2022-08-03T06:31:21;26.90;90.10
10354;DHT22;5223;50.924;13.338;2022-08-03T06:34:02;27.90;85.90
10354;DHT22;5223;50.924;13.338;2022-08-03T06:36:35;28.60;83.00
10354;DHT22;5223;50.924;13.338;2022-08-03T06:39:03;28.60;82.40
10354;DHT22;5223;50.924;13.338;2022-08-03T06:41:39;28.30;84.00
10354;DHT22;5223;50.924;13.338;2022-08-03T06:44:13;28.60;81.60
10354;DHT22;5223;50.924;13.338;2022-08-03T06:46:40;29.10;79.60
10354;DHT22;5223;50.924;13.338;2022-08-03T06:49:09;28.90;79.00
10354;DHT22;5223;50.924;13.338;2022-08-03T06:51:37;29.00;78.90
10354;DHT22;5223;50.924;13.338;2022-08-03T06:54:05;29.40;73.80
10354;DHT22;5223;50.924;13.338;2022-08-03T06:56:44;29.50;73.80
10354;DHT22;5223;50.924;13.338;2022-08-03T06:59:11;29.40;74.40
10354;DHT22;5223;50.924;13.338;2022-08-03T07:01:38;30.10;72.20
10354;DHT22;5223;50.924;13.338;2022-08-03T07:04:06;30.50;68.50
10354;DHT22;5223;50.924;13.338;2022-08-03T07:06:38;30.50;68.00
10354;DHT22;5223;50.924;13.338;2022-08-03T07:09:10;31.30;65.10
10354;DHT22;5223;50.924;13.338;2022-08-03T07:11:41;31.30;63.00
10354;DHT22;5223;50.924;13.338;2022-08-03T07:14:10;31.60;63.60
10354;DHT22;5223;50.924;13.338;2022-08-03T07:16:37;30.90;64.40
10354;DHT22;5223;50.924;13.338;2022-08-03T07:19:04;31.60;61.80
10354;DHT22;5223;50.924;13.338;2022-08-03T07:21:31;32.20;61.00
10354;DHT22;5223;50.924;13.338;2022-08-03T07:23:59;31.90;60.30
10354;DHT22;5223;50.924;13.338;2022-08-03T07:26:27;31.60;63.70
10354;DHT22;5223;50.924;13.338;2022-08-03T07:28:58;31.70;60.00
10354;DHT22;5223;50.924;13.338;2022-08-03T07:31:27;32.10;62.00
10354;DHT22;5223;50.924;13.338;2022-08-03T07:33:54;32.40;58.40
10354;DHT22;5223;50.924;13.338;2022-08-03T07:36:22;32.20;59.00
10354;DHT22;5223;50.924;13.338;2022-08-03T07:38:53;32.30;59.70
10354;DHT22;5223;50.924;13.338;2022-08-03T07:41:22;32.90;56.10
10354;DHT22;5223;50.924;13.338;2022-08-03T07:43:50;32.80;56.20
10354;DHT22;5223;50.924;13.338;2022-08-03T07:46:19;33.40;55.10
10354;DHT22;5223;50.924;13.338;2022-08-03T07:48:49;33.40;53.90
10354;DHT22;5223;50.924;13.338;2022-08-03T07:51:16;32.70;57.20
10354;DHT22;5223;50.924;13.338;2022-08-03T07:53:50;34.20;53.90
10354;DHT22;5223;50.924;13.338;2022-08-03T07:56:18;34.60;52.40
10354;DHT22;5223;50.924;13.338;2022-08-03T07:58:51;33.60;53.80
10354;DHT22;5223;50.924;13.338;2022-08-03T08:01:22;33.60;52.20
10354;DHT22;5223;50.924;13.338;2022-08-03T08:03:54;33.60;52.90
10354;DHT22;5223;50.924;13.338;2022-08-03T08:06:21;33.50;53.70
10354;DHT22;5223;50.924;13.338;2022-08-03T08:08:53;33.10;55.10
10354;DHT22;5223;50.924;13.338;2022-08-03T08:11:24;34.20;52.30
10354;DHT22;5223;50.924;13.338;2022-08-03T08:13:50;35.50;49.00
10354;DHT22;5223;50.924;13.338;2022-08-03T08:16:26;34.50;49.40
10354;DHT22;5223;50.924;13.338;2022-08-03T08:18:55;35.00;49.80
10354;DHT22;5223;50.924;13.338;2022-08-03T08:21:27;34.40;50.60
10354;DHT22;5223;50.924;13.338;2022-08-03T08:23:58;35.10;50.00
10354;DHT22;5223;50.924;13.338;2022-08-03T08:26:41;35.60;48.70
10354;DHT22;5223;50.924;13.338;2022-08-03T08:29:14;35.20;50.00
10354;DHT22;5223;50.924;13.338;2022-08-03T08:31:47;35.30;48.90
10354;DHT22;5223;50.924;13.338;2022-08-03T08:34:24;36.60;47.40
10354;DHT22;5223;50.924;13.338;2022-08-03T08:36:59;36.90;47.30
10354;DHT22;5223;50.924;13.338;2022-08-03T08:39:26;35.90;44.60
10354;DHT22;5223;50.924;13.338;2022-08-03T08:41:58;35.40;46.10
10354;DHT22;5223;50.924;13.338;2022-08-03T08:44:31;35.60;46.90
10354;DHT22;5223;50.924;13.338;2022-08-03T08:47:02;35.70;48.50
10354;DHT22;5223;50.924;13.338;2022-08-03T08:49:42;34.20;48.20
10354;DHT22;5223;50.924;13.338;2022-08-03T08:52:15;35.20;48.60
10354;DHT22;5223;50.924;13.338;2022-08-03T08:54:51;36.50;47.10
10354;DHT22;5223;50.924;13.338;2022-08-03T08:57:29;37.30;45.00
10354;DHT22;5223;50.924;13.338;2022-08-03T09:00:09;37.00;44.60
10354;DHT22;5223;50.924;13.338;2022-08-03T09:03:06;36.20;45.70
10354;DHT22;5223;50.924;13.338;2022-08-03T09:05:36;34.70;46.70
10354;DHT22;5223;50.924;13.338;2022-08-03T09:08:05;34.40;46.60
10354;DHT22;5223;50.924;13.338;2022-08-03T09:10:46;35.20;46.70
10354;DHT22;5223;50.924;13.338;2022-08-03T09:13:18;36.20;44.90
10354;DHT22;5223;50.924;13.338;2022-08-03T09:16:11;35.30;45.00
10354;DHT22;5223;50.924;13.338;2022-08-03T09:19:13;36.20;44.20
10354;DHT22;5223;50.924;13.338;2022-08-03T09:22:07;36.80;40.90
10354;DHT22;5223;50.924;13.338;2022-08-03T09:24:54;35.40;44.90
10354;DHT22;5223;50.924;13.338;2022-08-03T09:27:28;36.10;44.60
10354;DHT22;5223;50.924;13.338;2022-08-03T09:30:04;36.70;42.10
10354;DHT22;5223;50.924;13.338;2022-08-03T09:33:13;37.20;42.00
10354;DHT22;5223;50.924;13.338;2022-08-03T09:36:01;36.30;43.50
10354;DHT22;5223;50.924;13.338;2022-08-03T09:39:00;36.00;42.60
10354;DHT22;5223;50.924;13.338;2022-08-03T09:41:44;35.10;45.50
10354;DHT22;5223;50.924;13.338;2022-08-03T09:44:33;36.50;42.50
10354;DHT22;5223;50.924;13.338;2022-08-03T09:47:10;36.50;41.90
10354;DHT22;5223;50.924;13.338;2022-08-03T09:49:39;36.90;41.90
10354;DHT22;5223;50.924;13.338;2022-08-03T09:52:32;36.90;42.00
10354;DHT22;5223;50.924;13.338;2022-08-03T09:55:12;37.30;40.50
10354;DHT22;5223;50.924;13.338;2022-08-03T09:58:04;37.10;40.70
10354;DHT22;5223;50.924;13.338;2022-08-03T10:00:57;38.50;39.90
10354;DHT22;5223;50.924;13.338;2022-08-03T10:03:57;37.70;39.50
10354;DHT22;5223;50.924;13.338;2022-08-03T10:07:01;36.70;39.20
10354;DHT22;5223;50.924;13.338;2022-08-03T10:10:20;37.50;40.10
10354;DHT22;5223;50.924;13.338;2022-08-03T10:13:13;38.40;37.00
10354;DHT22;5223;50.924;13.338;2022-08-03T10:16:36;38.40;37.60
10354;DHT22;5223;50.924;13.338;2022-08-03T10:20:07;39.70;34.50
10354;DHT22;5223;50.924;13.338;2022-08-03T10:23:07;38.80;35.30
10354;DHT22;5223;50.924;13.338;2022-08-03T10:29:23;39.70;35.00
10354;DHT22;5223;50.924;13.338;2022-08-03T10:32:21;40.10;34.60
10354;DHT22;5223;50.924;13.338;2022-08-03T10:35:02;40.30;33.70
10354;DHT22;5223;50.924;13.338;2022-08-03T10:38:06;39.90;31.80
10354;DHT22;5223;50.924;13.338;2022-08-03T10:41:16;39.10;35.20
10354;DHT22;5223;50.924;13.338;2022-08-03T10:44:16;39.60;35.10
10354;DHT22;5223;50.924;13.338;2022-08-03T10:47:32;41.00;34.00
10354;DHT22;5223;50.924;13.338;2022-08-03T10:50:25;39.70;33.20
10354;DHT22;5223;50.924;13.338;2022-08-03T10:53:16;40.10;35.10
10354;DHT22;5223;50.924;13.338;2022-08-03T10:56:40;40.20;34.00
10354;DHT22;5223;50.924;13.338;2022-08-03T10:59:57;39.80;34.00
10354;DHT22;5223;50.924;13.338;2022-08-03T11:03:12;40.00;32.40
10354;DHT22;5223;50.924;13.338;2022-08-03T11:09:39;40.10;30.70
10354;DHT22;5223;50.924;13.338;2022-08-03T11:12:29;39.70;30.00
10354;DHT22;5223;50.924;13.338;2022-08-03T11:15:12;38.00;28.70
10354;DHT22;5223;50.924;13.338;2022-08-03T11:25:10;38.00;29.60
10354;DHT22;5223;50.924;13.338;2022-08-03T11:28:24;38.70;29.30
10354;DHT22;5223;50.924;13.338;2022-08-03T11:31:45;39.20;27.40
10354;DHT22;5223;50.924;13.338;2022-08-03T11:35:08;38.30;28.90
10354;DHT22;5223;50.924;13.338;2022-08-03T11:38:21;39.50;28.60
10354;DHT22;5223;50.924;13.338;2022-08-03T11:44:55;38.80;28.90
10354;DHT22;5223;50.924;13.338;2022-08-03T11:47:34;38.50;28.80
10354;DHT22;5223;50.924;13.338;2022-08-03T11:50:25;38.70;28.30
10354;DHT22;5223;50.924;13.338;2022-08-03T11:53:17;39.40;29.10
10354;DHT22;5223;50.924;13.338;2022-08-03T11:55:51;39.40;27.90
10354;DHT22;5223;50.924;13.338;2022-08-03T11:58:24;38.80;28.00
10354;DHT22;5223;50.924;13.338;2022-08-03T12:01:22;37.90;30.40
10354;DHT22;5223;50.924;13.338;2022-08-03T12:04:13;38.20;30.50
10354;DHT22;5223;50.924;13.338;2022-08-03T12:07:08;38.50;29.70
10354;DHT22;5223;50.924;13.338;2022-08-03T12:10:04;39.30;29.50
10354;DHT22;5223;50.924;13.338;2022-08-03T12:13:03;39.20;30.10
10354;DHT22;5223;50.924;13.338;2022-08-03T12:15:54;40.30;30.20
10354;DHT22;5223;50.924;13.338;2022-08-03T12:18:54;39.90;29.60
10354;DHT22;5223;50.924;13.338;2022-08-03T12:21:46;38.40;29.50
10354;DHT22;5223;50.924;13.338;2022-08-03T12:27:24;39.20;29.10
10354;DHT22;5223;50.924;13.338;2022-08-03T12:30:02;39.60;28.60
10354;DHT22;5223;50.924;13.338;2022-08-03T12:32:32;39.00;29.40
10354;DHT22;5223;50.924;13.338;2022-08-03T12:35:32;38.10;29.70
10354;DHT22;5223;50.924;13.338;2022-08-03T12:38:10;38.40;29.00
10354;DHT22;5223;50.924;13.338;2022-08-03T12:41:04;38.80;29.40
10354;DHT22;5223;50.924;13.338;2022-08-03T12:43:59;39.90;29.00
10354;DHT22;5223;50.924;13.338;2022-08-03T12:47:02;39.60;29.30
10354;DHT22;5223;50.924;13.338;2022-08-03T12:49:51;38.70;29.20
10354;DHT22;5223;50.924;13.338;2022-08-03T12:52:45;39.60;30.00
10354;DHT22;5223;50.924;13.338;2022-08-03T12:55:24;39.30;28.70
10354;DHT22;5223;50.924;13.338;2022-08-03T12:58:07;38.20;28.90
10354;DHT22;5223;50.924;13.338;2022-08-03T13:01:10;38.90;29.70
10354;DHT22;5223;50.924;13.338;2022-08-03T13:03:55;38.70;29.30
10354;DHT22;5223;50.924;13.338;2022-08-03T13:06:39;38.00;30.50
10354;DHT22;5223;50.924;13.338;2022-08-03T13:09:48;37.40;31.60
10354;DHT22;5223;50.924;13.338;2022-08-03T13:12:31;38.60;30.20
10354;DHT22;5223;50.924;13.338;2022-08-03T13:15:08;38.50;30.30
10354;DHT22;5223;50.924;13.338;2022-08-03T13:17:52;38.20;29.00
10354;DHT22;5223;50.924;13.338;2022-08-03T13:20:24;38.10;28.70
10354;DHT22;5223;50.924;13.338;2022-08-03T13:22:55;38.40;29.60
10354;DHT22;5223;50.924;13.338;2022-08-03T13:26:07;38.80;29.50
10354;DHT22;5223;50.924;13.338;2022-08-03T13:28:45;39.30;30.00
10354;DHT22;5223;50.924;13.338;2022-08-03T13:31:20;38.60;29.40
10354;DHT22;5223;50.924;13.338;2022-08-03T13:33:56;38.50;29.40
10354;DHT22;5223;50.924;13.338;2022-08-03T13:36:37;38.60;30.20
10354;DHT22;5223;50.924;13.338;2022-08-03T13:39:24;39.40;28.70
10354;DHT22;5223;50.924;13.338;2022-08-03T13:42:11;39.90;28.70
10354;DHT22;5223;50.924;13.338;2022-08-03T13:44:52;40.60;28.10
10354;DHT22;5223;50.924;13.338;2022-08-03T13:47:44;39.50;29.10
10354;DHT22;5223;50.924;13.338;2022-08-03T13:50:26;39.80;28.90
10354;DHT22;5223;50.924;13.338;2022-08-03T13:53:02;40.40;28.90
10354;DHT22;5223;50.924;13.338;2022-08-03T13:55:39;40.60;27.90
10354;DHT22;5223;50.924;13.338;2022-08-03T13:58:53;40.30;27.70
10354;DHT22;5223;50.924;13.338;2022-08-03T14:01:28;39.40;28.70
10354;DHT22;5223;50.924;13.338;2022-08-03T14:04:02;39.90;29.20
10354;DHT22;5223;50.924;13.338;2022-08-03T14:06:34;39.80;29.10
10354;DHT22;5223;50.924;13.338;2022-08-03T14:09:19;39.30;28.80
10354;DHT22;5223;50.924;13.338;2022-08-03T14:11:46;37.80;29.80
10354;DHT22;5223;50.924;13.338;2022-08-03T14:14:53;39.30;30.00
10354;DHT22;5223;50.924;13.338;2022-08-03T14:17:36;39.50;28.60
10354;DHT22;5223;50.924;13.338;2022-08-03T14:20:10;39.50;28.50
10354;DHT22;5223;50.924;13.338;2022-08-03T14:22:44;39.10;28.00
10354;DHT22;5223;50.924;13.338;2022-08-03T14:25:24;38.00;30.40
10354;DHT22;5223;50.924;13.338;2022-08-03T14:28:05;38.30;30.40
10354;DHT22;5223;50.924;13.338;2022-08-03T14:30:51;38.30;30.00
10354;DHT22;5223;50.924;13.338;2022-08-03T14:33:23;38.70;29.70
10354;DHT22;5223;50.924;13.338;2022-08-03T14:36:05;38.50;29.00
10354;DHT22;5223;50.924;13.338;2022-08-03T14:38:37;39.10;29.90
10354;DHT22;5223;50.924;13.338;2022-08-03T14:41:15;39.20;28.80
10354;DHT22;5223;50.924;13.338;2022-08-03T14:43:48;38.50;29.70
10354;DHT22;5223;50.924;13.338;2022-08-03T14:46:28;37.80;30.10
10354;DHT22;5223;50.924;13.338;2022-08-03T14:49:07;37.70;31.70
10354;DHT22;5223;50.924;13.338;2022-08-03T14:51:40;38.00;30.80
10354;DHT22;5223;50.924;13.338;2022-08-03T14:54:25;39.40;29.80
10354;DHT22;5223;50.924;13.338;2022-08-03T14:57:13;38.30;30.00
10354;DHT22;5223;50.924;13.338;2022-08-03T14:59:54;38.10;31.40
10354;DHT22;5223;50.924;13.338;2022-08-03T15:03:01;38.60;30.10
10354;DHT22;5223;50.924;13.338;2022-08-03T15:05:36;38.40;29.50
10354;DHT22;5223;50.924;13.338;2022-08-03T15:08:30;38.00;30.30
10354;DHT22;5223;50.924;13.338;2022-08-03T15:11:18;37.70;30.00
10354;DHT22;5223;50.924;13.338;2022-08-03T15:13:55;37.20;31.70
10354;DHT22;5223;50.924;13.338;2022-08-03T15:16:30;37.40;31.80
10354;DHT22;5223;50.924;13.338;2022-08-03T15:19:12;36.60;31.50
10354;DHT22;5223;50.924;13.338;2022-08-03T15:21:47;36.30;32.80
10354;DHT22;5223;50.924;13.338;2022-08-03T15:24:19;36.40;32.10
10354;DHT22;5223;50.924;13.338;2022-08-03T15:26:51;36.00;33.10
10354;DHT22;5223;50.924;13.338;2022-08-03T15:29:28;36.10;33.40
10354;DHT22;5223;50.924;13.338;2022-08-03T15:32:00;35.60;33.30
10354;DHT22;5223;50.924;13.338;2022-08-03T15:34:33;35.20;33.50
10354;DHT22;5223;50.924;13.338;2022-08-03T15:37:01;35.00;34.70
10354;DHT22;5223;50.924;13.338;2022-08-03T15:39:29;34.80;35.60
10354;DHT22;5223;50.924;13.338;2022-08-03T15:41:56;34.80;35.00
10354;DHT22;5223;50.924;13.338;2022-08-03T15:44:29;35.30;34.90
10354;DHT22;5223;50.924;13.338;2022-08-03T15:46:56;34.60;34.00
10354;DHT22;5223;50.924;13.338;2022-08-03T15:49:26;34.00;35.20
10354;DHT22;5223;50.924;13.338;2022-08-03T15:51:54;34.10;35.40
10354;DHT22;5223;50.924;13.338;2022-08-03T15:54:21;34.30;36.60
10354;DHT22;5223;50.924;13.338;2022-08-03T15:56:50;34.20;35.40
10354;DHT22;5223;50.924;13.338;2022-08-03T15:59:17;33.80;36.50
10354;DHT22;5223;50.924;13.338;2022-08-03T16:01:45;33.80;36.60
10354;DHT22;5223;50.924;13.338;2022-08-03T16:04:13;33.60;36.90
10354;DHT22;5223;50.924;13.338;2022-08-03T16:06:40;33.40;36.70
10354;DHT22;5223;50.924;13.338;2022-08-03T16:09:10;33.50;37.60
10354;DHT22;5223;50.924;13.338;2022-08-03T16:11:37;33.60;37.30
10354;DHT22;5223;50.924;13.338;2022-08-03T16:14:04;33.50;36.40
10354;DHT22;5223;50.924;13.338;2022-08-03T16:16:31;33.30;37.10
10354;DHT22;5223;50.924;13.338;2022-08-03T16:19:04;33.20;37.50
10354;DHT22;5223;50.924;13.338;2022-08-03T16:21:34;33.10;37.80
10354;DHT22;5223;50.924;13.338;2022-08-03T16:24:03;33.00;37.90
10354;DHT22;5223;50.924;13.338;2022-08-03T16:26:34;33.10;38.00
10354;DHT22;5223;50.924;13.338;2022-08-03T16:29:06;33.00;37.40
10354;DHT22;5223;50.924;13.338;2022-08-03T16:31:33;32.90;37.70
10354;DHT22;5223;50.924;13.338;2022-08-03T16:33:59;32.70;37.70
10354;DHT22;5223;50.924;13.338;2022-08-03T16:36:26;32.60;39.10
10354;DHT22;5223;50.924;13.338;2022-08-03T16:38:54;32.50;38.80
10354;DHT22;5223;50.924;13.338;2022-08-03T16:41:25;32.60;38.40
10354;DHT22;5223;50.924;13.338;2022-08-03T16:43:58;32.50;38.20
10354;DHT22;5223;50.924;13.338;2022-08-03T16:46:26;32.30;38.50
10354;DHT22;5223;50.924;13.338;2022-08-03T16:48:54;32.40;39.10
10354;DHT22;5223;50.924;13.338;2022-08-03T16:51:22;32.10;38.60
10354;DHT22;5223;50.924;13.338;2022-08-03T16:53:49;32.00;39.10
10354;DHT22;5223;50.924;13.338;2022-08-03T16:56:19;31.80;39.20
10354;DHT22;5223;50.924;13.338;2022-08-03T16:58:49;31.90;39.60
10354;DHT22;5223;50.924;13.338;2022-08-03T17:01:18;31.90;40.00
10354;DHT22;5223;50.924;13.338;2022-08-03T17:03:46;31.80;39.90